Time;durP1;ratioP1;P1;durP2;ratioP2;P2;SDS_P1;SDS_P2;PMS_P1;PMS_P2;Temp;Humidity;BMP_temperature;BMP_pressure;BME280_temperature;BME280_humidity;BME280_pressure;Samples;Min_cycle;Max_cycle;Signal;HPM_P1;HPM_P2
2022/10/13 00:01:15;;;;;;;15.07;7.30;;;12.80;99.90;;;13.31;nan;101176.81;5009845;28;20674;-68
2022/10/13 00:03:46;;;;;;;12.57;7.40;;;12.80;99.90;;;13.27;nan;101177.19;4991656;28;21235;-69
2022/10/13 00:06:17;;;;;;;12.17;6.80;;;12.90;99.90;;;13.33;nan;101174.91;4993684;28;21225;-69
2022/10/13 00:08:45;;;;;;;13.93;7.07;;;12.90;99.90;;;13.31;nan;101176.00;5010454;28;20637;-68
2022/10/13 00:11:23;;;;;;;19.13;6.90;;;12.80;99.90;;;13.28;nan;101170.97;5012018;28;20617;-69
2022/10/13 00:13:54;;;;;;;11.63;6.60;;;12.80;99.90;;;13.24;nan;101173.00;5010789;28;20691;-67
2022/10/13 00:16:21;;;;;;;13.30;6.47;;;12.80;99.90;;;13.22;nan;101172.28;5010867;28;20665;-66
2022/10/13 00:18:49;;;;;;;16.07;6.80;;;12.80;99.90;;;13.21;nan;101167.97;5009949;28;20816;-66
2022/10/13 00:21:20;;;;;;;9.27;5.80;;;12.80;99.90;;;13.17;nan;101169.16;5010395;28;21036;-68
2022/10/13 00:23:49;;;;;;;12.30;6.10;;;12.70;99.90;;;13.14;nan;101172.84;5010099;28;21219;-68
2022/10/13 00:26:17;;;;;;;9.53;6.63;;;12.80;99.90;;;13.03;nan;101170.13;4993107;28;21213;-68
2022/10/13 00:28:43;;;;;;;12.13;6.70;;;12.70;99.90;;;13.00;nan;101175.59;5009834;28;20626;-67
2022/10/13 00:31:23;;;;;;;14.90;7.30;;;12.60;99.90;;;12.96;nan;101173.31;5010105;28;20626;-67
2022/10/13 00:33:50;;;;;;;16.60;7.33;;;12.60;99.90;;;12.92;nan;101174.50;5000945;28;20644;-67
2022/10/13 00:36:18;;;;;;;21.00;7.03;;;12.60;99.90;;;12.96;nan;101178.56;5009497;28;20738;-68
2022/10/13 00:38:45;;;;;;;13.57;7.27;;;12.60;99.90;;;12.97;nan;101177.59;5010484;28;20614;-66
2022/10/13 00:41:12;;;;;;;11.67;6.70;;;12.60;99.90;;;12.93;nan;101173.53;5009872;28;20696;-68
2022/10/13 00:44:46;;;;;;;13.87;6.93;;;12.60;99.90;;;12.95;nan;101184.72;4992953;28;20594;-69
2022/10/13 00:47:13;;;;;;;17.63;7.00;;;12.50;99.90;;;12.92;nan;101184.97;4972713;28;20661;-70
2022/10/13 00:49:40;;;;;;;14.20;7.00;;;12.60;99.90;;;12.92;nan;101187.59;5009537;28;20637;-69
2022/10/13 00:52:07;;;;;;;15.13;7.23;;;12.50;99.90;;;12.95;nan;101187.34;5010527;28;20726;-67
2022/10/13 00:54:33;;;;;;;12.27;6.67;;;12.50;99.90;;;12.95;nan;101182.97;4993177;28;20626;-70
2022/10/13 00:57:03;;;;;;;14.80;7.57;;;12.50;99.90;;;12.97;nan;101182.84;5010602;28;20642;-68
2022/10/13 00:59:30;;;;;;;12.27;6.57;;;12.50;99.90;;;12.94;nan;101177.84;5009786;28;20622;-68
2022/10/13 01:01:58;;;;;;;11.70;7.37;;;12.50;99.90;;;12.85;nan;101173.25;4983089;28;20680;-67
2022/10/13 01:04:32;;;;;;;15.50;8.30;;;12.50;99.90;;;12.90;nan;101176.41;4994033;28;20634;-66
2022/10/13 01:07:00;;;;;;;11.90;6.23;;;12.50;99.90;;;12.87;nan;101168.75;4992344;28;20720;-69
2022/10/13 01:09:33;;;;;;;11.50;6.77;;;12.50;99.90;;;12.85;nan;101165.41;5008533;28;20626;-69
2022/10/13 01:12:31;;;;;;;12.47;6.63;;;12.50;99.90;;;12.84;nan;101169.81;5009726;28;20632;-69
2022/10/13 01:15:12;;;;;;;15.40;7.37;;;12.50;99.90;;;12.83;nan;101170.78;4992712;28;21198;-68
2022/10/13 01:18:04;;;;;;;13.03;7.27;;;12.40;99.90;;;12.80;nan;101163.13;5009742;28;20644;-69
2022/10/13 01:20:57;;;;;;;17.03;8.90;;;12.40;99.90;;;12.79;nan;101166.69;4990253;28;20659;-69
2022/10/13 01:24:18;;;;;;;16.80;8.67;;;12.40;99.90;;;12.79;nan;101166.69;4991883;28;20629;-67
2022/10/13 01:26:57;;;;;;;13.00;8.00;;;12.40;99.90;;;12.69;nan;101167.47;4998916;28;20664;-69
2022/10/13 01:30:15;;;;;;;17.67;8.20;;;12.40;99.90;;;12.61;nan;101159.31;5009636;28;20624;-68
2022/10/13 01:33:16;;;;;;;16.47;8.47;;;12.30;99.90;;;12.53;nan;101164.28;4996930;28;20699;-67
2022/10/13 01:36:19;;;;;;;15.50;6.80;;;12.30;99.90;;;12.68;nan;101171.88;4995988;28;20669;-68
2022/10/13 01:39:16;;;;;;;10.10;5.37;;;12.30;99.90;;;12.56;nan;101164.91;5013348;28;21293;-67
2022/10/13 01:41:49;;;;;;;11.40;5.83;;;12.20;99.90;;;12.58;nan;101167.41;4996127;28;20665;-68
2022/10/13 01:44:29;;;;;;;10.97;6.23;;;12.20;99.90;;;12.58;nan;101162.19;5014679;28;20655;-69
2022/10/13 01:46:58;;;;;;;10.23;5.77;;;12.20;99.90;;;12.55;nan;101168.47;4995733;28;20661;-69
2022/10/13 01:49:31;;;;;;;11.00;6.07;;;12.20;99.90;;;12.51;nan;101159.16;4996178;28;20993;-67
2022/10/13 01:52:05;;;;;;;20.93;6.97;;;12.20;99.90;;;12.43;nan;101157.09;4996005;28;20633;-68
2022/10/13 01:54:32;;;;;;;13.23;6.93;;;12.10;99.90;;;12.35;nan;101158.59;4996885;28;21003;-68
2022/10/13 01:57:00;;;;;;;14.73;6.57;;;12.10;99.90;;;12.37;nan;101154.91;4995849;28;20661;-68
2022/10/13 01:59:31;;;;;;;9.47;6.50;;;12.10;99.90;;;12.43;nan;101154.50;5010402;28;21185;-69
2022/10/13 02:02:16;;;;;;;10.50;6.00;;;12.10;99.90;;;12.45;nan;101157.81;5011438;28;20742;-67
2022/10/13 02:05:02;;;;;;;13.33;6.53;;;12.10;99.90;;;12.42;nan;101157.19;5013195;28;20660;-69
2022/10/13 02:08:04;;;;;;;11.90;6.57;;;12.10;99.90;;;12.48;nan;101159.38;5013013;28;20664;-69
2022/10/13 02:10:47;;;;;;;10.97;5.60;;;12.10;99.90;;;12.34;nan;101155.13;4992967;28;20641;-67
2022/10/13 02:13:20;;;;;;;14.37;7.03;;;12.00;99.90;;;12.30;nan;101155.44;4993933;28;20637;-68
2022/10/13 02:15:51;;;;;;;17.30;7.10;;;12.00;99.90;;;12.26;nan;101161.84;4995637;28;21208;-68
2022/10/13 02:18:24;;;;;;;9.83;6.63;;;11.90;99.90;;;12.22;nan;101166.44;4991284;28;20634;-68
2022/10/13 02:20:52;;;;;;;12.37;5.97;;;11.90;99.90;;;12.23;nan;101157.66;5004757;28;20676;-66
2022/10/13 02:23:20;;;;;;;13.30;6.20;;;12.00;99.90;;;12.26;nan;101151.38;4994882;28;20636;-67
2022/10/13 02:25:49;;;;;;;9.80;6.70;;;12.00;99.90;;;12.22;nan;101149.94;4995511;28;20641;-71
2022/10/13 02:28:17;;;;;;;11.53;6.27;;;11.90;99.90;;;12.25;nan;101140.06;4995212;28;20638;-71
2022/10/13 02:30:45;;;;;;;11.97;6.77;;;11.90;99.90;;;12.23;nan;101141.97;4995686;28;20617;-69
2022/10/13 02:33:14;;;;;;;14.57;7.57;;;11.90;99.90;;;12.25;nan;101139.22;5012379;28;20634;-69
2022/10/13 02:35:42;;;;;;;15.40;7.00;;;11.90;99.90;;;12.24;nan;101138.41;5009418;28;20677;-68
2022/10/13 02:38:09;;;;;;;16.07;7.00;;;11.90;99.90;;;12.28;nan;101139.03;4993101;28;20660;-67
2022/10/13 02:40:36;;;;;;;12.13;6.80;;;11.90;99.90;;;12.29;nan;101124.97;4994213;28;20673;-69
2022/10/13 02:43:04;;;;;;;9.73;6.60;;;12.00;99.90;;;12.34;nan;101128.97;5011630;28;21181;-70
2022/10/13 02:45:31;;;;;;;12.50;6.70;;;11.90;99.90;;;12.34;nan;101128.13;5011578;28;20659;-67
2022/10/13 02:47:58;;;;;;;13.70;7.50;;;11.90;99.90;;;12.34;nan;101123.72;5012369;28;20610;-70
2022/10/13 02:50:25;;;;;;;16.37;7.03;;;12.00;99.90;;;12.32;nan;101124.78;5011873;28;21011;-67
2022/10/13 02:52:51;;;;;;;15.27;7.00;;;12.00;99.90;;;12.28;nan;101124.19;5011532;28;21212;-70
2022/10/13 02:55:18;;;;;;;10.67;6.40;;;11.90;99.90;;;12.33;nan;101124.66;5012449;28;20616;-68
2022/10/13 02:57:45;;;;;;;15.70;7.50;;;11.90;99.90;;;12.29;nan;101120.59;5011779;28;21002;-67
2022/10/13 03:00:13;;;;;;;13.50;6.70;;;11.90;99.90;;;12.30;nan;101129.28;5012321;28;20993;-67
2022/10/13 03:02:41;;;;;;;12.57;7.20;;;11.90;99.90;;;12.37;nan;101128.72;5012082;28;20641;-69
2022/10/13 03:05:09;;;;;;;10.30;6.23;;;11.90;99.90;;;12.37;nan;101126.09;5005344;28;20724;-69
2022/10/13 03:07:36;;;;;;;11.40;6.40;;;11.90;99.90;;;12.36;nan;101127.06;5011240;28;20621;-69
2022/10/13 03:10:04;;;;;;;17.40;6.77;;;11.90;99.90;;;12.42;nan;101133.63;5011125;28;20681;-68
2022/10/13 03:12:31;;;;;;;12.17;6.00;;;12.00;99.90;;;12.45;nan;101129.03;5011220;28;20633;-69
2022/10/13 03:14:58;;;;;;;12.60;6.10;;;12.00;99.90;;;12.39;nan;101126.03;5012022;28;20703;-68
2022/10/13 03:17:26;;;;;;;16.37;7.03;;;12.00;99.90;;;12.39;nan;101128.63;4995084;28;21221;-67
2022/10/13 03:19:53;;;;;;;10.57;5.60;;;12.00;99.90;;;12.36;nan;101119.22;4994079;28;20648;-70
2022/10/13 03:22:20;;;;;;;12.57;5.90;;;11.90;99.90;;;12.35;nan;101114.91;5012685;28;20654;-68
2022/10/13 03:24:47;;;;;;;13.20;5.70;;;11.90;99.90;;;12.33;nan;101121.19;5011534;28;20632;-67
2022/10/13 03:27:14;;;;;;;14.67;7.30;;;11.90;99.90;;;12.31;nan;101117.84;4995147;28;20648;-68
2022/10/13 03:29:41;;;;;;;13.80;7.60;;;11.90;99.90;;;12.31;nan;101123.09;5011248;28;21211;-68
2022/10/13 03:32:08;;;;;;;18.67;8.00;;;11.90;99.90;;;12.21;nan;101115.06;5011655;28;21201;-67
2022/10/13 03:34:35;;;;;;;14.07;7.13;;;11.90;99.90;;;12.24;nan;101117.50;5010808;28;21441;-67
2022/10/13 03:37:02;;;;;;;13.37;6.20;;;11.90;99.90;;;12.31;nan;101120.47;5037340;22;21314;-63
2022/10/13 03:39:29;;;;;;;17.93;6.00;;;11.90;99.90;;;12.24;nan;101122.72;5013511;28;21022;-63
2022/10/13 03:41:56;;;;;;;12.20;5.43;;;11.90;99.90;;;11.63;nan;101125.25;5031545;28;20671;-63
2022/10/13 03:44:23;;;;;;;9.83;5.90;;;11.70;99.90;;;11.87;nan;101126.22;5030086;28;21204;-63
2022/10/13 03:46:50;;;;;;;11.63;5.70;;;11.60;99.90;;;11.96;nan;101122.16;5019433;28;21061;-64
2022/10/13 03:49:17;;;;;;;10.70;5.50;;;11.60;99.90;;;12.07;nan;101117.00;5000188;28;20642;-64
2022/10/13 03:51:44;;;;;;;13.87;5.77;;;11.70;99.90;;;12.07;nan;101114.38;4991724;28;20619;-63
2022/10/13 03:54:12;;;;;;;11.77;5.47;;;11.70;99.90;;;12.06;nan;101124.00;5006757;28;20647;-63
2022/10/13 03:56:39;;;;;;;9.10;5.07;;;11.70;99.90;;;11.97;nan;101123.81;5011323;28;21011;-64
2022/10/13 03:59:07;;;;;;;12.80;6.20;;;11.60;99.90;;;11.90;nan;101127.81;4993388;28;21231;-63
2022/10/13 04:01:34;;;;;;;8.07;5.10;;;11.60;99.90;;;11.94;nan;101124.03;5011489;28;20658;-64
2022/10/13 04:04:01;;;;;;;13.13;6.03;;;11.60;99.90;;;11.77;nan;101122.59;5007497;28;20641;-63
2022/10/13 04:06:30;;;;;;;10.90;6.17;;;11.60;99.90;;;11.90;nan;101122.56;5003292;28;20654;-63
2022/10/13 04:08:57;;;;;;;10.60;5.37;;;11.60;99.90;;;11.84;nan;101123.81;5010767;28;20632;-63
2022/10/13 04:11:24;;;;;;;12.53;5.27;;;11.50;99.90;;;11.72;nan;101124.69;5011630;28;20616;-63
2022/10/13 04:13:52;;;;;;;10.20;5.90;;;11.50;99.90;;;11.82;nan;101120.47;5010520;28;20634;-65
2022/10/13 04:16:25;;;;;;;12.83;5.53;;;11.40;99.90;;;11.82;nan;101119.66;4994256;28;20711;-64
2022/10/13 04:19:03;;;;;;;8.10;5.00;;;11.50;99.90;;;11.69;nan;101125.72;5009724;28;20642;-63
2022/10/13 04:21:32;;;;;;;9.30;5.83;;;11.40;99.90;;;11.63;nan;101120.88;5010955;28;20669;-64
2022/10/13 04:24:00;;;;;;;8.73;5.47;;;11.40;99.90;;;11.56;nan;101124.84;4991018;28;20634;-63
2022/10/13 04:26:30;;;;;;;9.10;4.93;;;11.40;99.90;;;11.56;nan;101124.03;4989922;28;20681;-64
2022/10/13 04:28:57;;;;;;;10.87;5.47;;;11.30;99.90;;;11.73;nan;101123.75;5009562;28;20672;-63
2022/10/13 04:31:25;;;;;;;14.30;6.40;;;11.40;99.90;;;11.69;nan;101119.69;4993218;28;21185;-64
2022/10/13 04:33:52;;;;;;;9.07;5.10;;;11.40;99.90;;;11.88;nan;101116.63;4992593;28;20695;-63
2022/10/13 04:36:20;;;;;;;11.30;5.47;;;11.40;99.90;;;11.82;nan;101117.84;5010946;28;20715;-63
2022/10/13 04:38:47;;;;;;;13.07;5.10;;;11.50;99.90;;;11.78;nan;101113.78;5010109;28;20623;-63
2022/10/13 04:41:17;;;;;;;9.80;5.27;;;11.50;99.90;;;11.85;nan;101107.19;4993545;28;20676;-64
2022/10/13 04:43:48;;;;;;;9.40;5.40;;;11.50;99.90;;;11.73;nan;101104.59;5010382;28;20622;-63
2022/10/13 04:46:25;;;;;;;7.70;5.40;;;11.40;99.90;;;11.83;nan;101109.09;5000705;28;20732;-64
2022/10/13 04:48:53;;;;;;;7.50;4.67;;;11.50;99.90;;;11.90;nan;101115.56;5009375;28;20642;-64
2022/10/13 04:51:23;;;;;;;11.10;5.83;;;11.50;99.90;;;11.86;nan;101111.47;5001757;28;20640;-64
2022/10/13 04:53:55;;;;;;;12.20;6.10;;;11.50;99.90;;;11.95;nan;101116.06;5010184;28;20633;-63
2022/10/13 04:56:23;;;;;;;9.60;6.10;;;11.50;99.90;;;12.04;nan;101107.59;5010777;28;21337;-66
2022/10/13 04:58:50;;;;;;;11.37;6.50;;;11.60;99.90;;;12.11;nan;101110.59;5009917;28;20673;-63
2022/10/13 05:01:21;;;;;;;10.70;6.17;;;11.60;99.90;;;12.17;nan;101105.78;5008697;28;21068;-63
2022/10/13 05:04:00;;;;;;;11.00;6.20;;;11.60;99.90;;;12.19;nan;101106.50;5010616;28;20626;-64
2022/10/13 05:06:32;;;;;;;10.80;6.80;;;11.70;99.90;;;12.22;nan;101097.59;5002836;28;20654;-63
2022/10/13 05:08:59;;;;;;;10.60;6.77;;;11.70;99.90;;;12.26;nan;101096.44;5010182;28;20638;-63
2022/10/13 05:11:27;;;;;;;13.20;6.30;;;11.70;99.90;;;12.34;nan;101089.72;5014193;28;20621;-63
2022/10/13 05:13:55;;;;;;;9.40;5.10;;;11.80;99.90;;;12.24;nan;101083.47;5014568;28;20648;-63
2022/10/13 05:16:23;;;;;;;12.77;5.77;;;11.80;99.90;;;12.27;nan;101080.63;5014363;28;20652;-63
2022/10/13 05:18:52;;;;;;;10.33;5.17;;;11.80;99.90;;;12.23;nan;101073.09;5013954;28;20642;-63
2022/10/13 05:21:26;;;;;;;13.80;6.80;;;11.80;99.90;;;12.23;nan;101073.09;5014430;28;20675;-63
2022/10/13 05:23:55;;;;;;;10.27;5.90;;;11.80;99.90;;;12.20;nan;101066.31;5014117;28;20629;-64
2022/10/13 05:26:28;;;;;;;9.80;5.60;;;11.80;99.90;;;12.15;nan;101068.44;4997048;28;20679;-63
2022/10/13 05:28:57;;;;;;;11.83;6.00;;;11.80;99.90;;;12.18;nan;101073.41;5013641;28;20678;-64
2022/10/13 05:31:26;;;;;;;14.73;5.87;;;11.70;99.90;;;12.24;nan;101070.41;5014556;28;20642;-63
2022/10/13 05:33:54;;;;;;;15.37;6.60;;;11.80;99.90;;;12.27;nan;101075.38;5014349;28;20622;-64
2022/10/13 05:36:31;;;;;;;13.57;7.47;;;11.80;99.90;;;12.30;nan;101079.56;5014007;28;21224;-63
2022/10/13 05:39:02;;;;;;;10.10;5.97;;;11.80;99.90;;;12.25;nan;101065.97;4996376;28;20651;-64
2022/10/13 05:41:30;;;;;;;15.23;7.97;;;11.90;99.90;;;12.36;nan;101076.50;5012557;28;20670;-63
2022/10/13 05:44:04;;;;;;;15.00;8.63;;;11.90;99.90;;;12.39;nan;101079.72;5014072;28;20608;-65
2022/10/13 05:46:31;;;;;;;21.20;8.17;;;11.90;99.90;;;12.43;nan;101078.59;4994529;28;20841;-64
2022/10/13 05:48:58;;;;;;;12.90;6.80;;;11.90;99.90;;;12.48;nan;101075.59;4997431;28;20641;-64
2022/10/13 05:51:30;;;;;;;14.47;7.70;;;12.00;99.90;;;12.52;nan;101078.88;4993738;28;20614;-64
2022/10/13 05:54:23;;;;;;;13.43;7.67;;;12.00;99.90;;;12.52;nan;101073.63;5011837;28;20633;-63
2022/10/13 05:56:56;;;;;;;15.63;8.10;;;12.10;99.90;;;12.55;nan;101073.38;4995951;28;20997;-63
2022/10/13 05:59:26;;;;;;;15.57;7.10;;;12.00;99.90;;;12.48;nan;101066.94;5014417;28;20620;-63
2022/10/13 06:01:53;;;;;;;15.73;6.87;;;12.00;99.90;;;12.44;nan;101067.16;4995766;28;20696;-63
2022/10/13 06:04:27;;;;;;;10.57;5.37;;;12.10;99.90;;;12.29;nan;101060.41;5011713;28;20667;-63
2022/10/13 06:06:54;;;;;;;14.93;6.27;;;12.00;99.90;;;12.20;nan;101063.69;5004024;28;20672;-64
2022/10/13 06:09:21;;;;;;;19.87;8.73;;;12.00;99.90;;;12.36;nan;101063.44;5012462;28;20637;-63
2022/10/13 06:11:48;;;;;;;14.37;6.90;;;12.00;99.90;;;12.34;nan;101060.94;5013084;28;21026;-63
2022/10/13 06:14:15;;;;;;;13.60;7.40;;;12.00;99.90;;;12.26;nan;101063.28;5013232;28;20630;-64
2022/10/13 06:16:42;;;;;;;15.47;6.97;;;11.90;99.90;;;12.27;nan;101054.47;5010831;28;20727;-64
2022/10/13 06:19:08;;;;;;;12.83;6.60;;;11.90;99.90;;;12.25;nan;101061.59;5012826;28;20981;-63
2022/10/13 06:21:35;;;;;;;10.03;5.20;;;11.90;99.90;;;12.30;nan;101064.72;5006170;28;20681;-63
2022/10/13 06:24:02;;;;;;;16.10;7.73;;;11.90;99.90;;;12.17;nan;101068.31;5012678;28;20641;-63
2022/10/13 06:26:29;;;;;;;22.40;10.70;;;11.90;99.90;;;12.24;nan;101070.41;5012445;28;21072;-63
2022/10/13 06:28:56;;;;;;;24.60;11.63;;;11.90;99.90;;;12.26;nan;101086.81;5013092;28;20637;-63
2022/10/13 06:31:25;;;;;;;19.20;9.63;;;11.90;99.90;;;12.40;nan;101081.41;5013377;28;20617;-62
2022/10/13 06:33:52;;;;;;;16.07;7.80;;;12.00;99.90;;;12.53;nan;101085.75;5011676;28;21216;-62
2022/10/13 06:36:19;;;;;;;13.07;6.37;;;12.00;99.90;;;12.56;nan;101082.91;4995079;28;20665;-64
2022/10/13 06:38:46;;;;;;;14.27;5.70;;;12.10;99.90;;;12.56;nan;101081.16;5012162;28;20645;-65
2022/10/13 06:41:13;;;;;;;13.17;6.50;;;12.10;99.90;;;12.51;nan;101082.41;5013016;28;20618;-63
2022/10/13 06:43:41;;;;;;;16.30;7.17;;;12.00;99.90;;;12.48;nan;101085.25;5006112;28;20716;-65
2022/10/13 06:46:11;;;;;;;18.50;6.13;;;12.10;99.90;;;12.46;nan;101085.34;5010532;28;21255;-64
2022/10/13 06:48:38;;;;;;;11.70;6.00;;;12.00;99.90;;;12.36;nan;101086.97;5011604;28;21017;-64
2022/10/13 06:51:08;;;;;;;16.20;6.13;;;12.10;99.90;;;12.50;nan;101080.75;5011422;28;21219;-64
2022/10/13 06:53:35;;;;;;;19.90;7.50;;;12.10;99.90;;;12.57;nan;101072.34;5011916;28;21055;-62
2022/10/13 06:56:06;;;;;;;18.97;7.43;;;12.10;99.90;;;12.60;nan;101061.66;5012430;28;21059;-62
2022/10/13 06:58:35;;;;;;;16.40;6.90;;;12.10;99.90;;;12.41;nan;101066.56;5010335;28;21203;-63
2022/10/13 07:01:03;;;;;;;16.57;7.23;;;12.10;99.90;;;12.51;nan;101074.56;5010797;28;20642;-63
2022/10/13 07:03:30;;;;;;;18.00;7.53;;;12.10;99.90;;;12.64;nan;101063.09;5011010;28;21233;-63
2022/10/13 07:06:03;;;;;;;18.03;8.20;;;12.20;99.90;;;12.68;nan;101071.53;5011418;28;20665;-65
2022/10/13 07:08:33;;;;;;;16.07;8.17;;;12.20;99.90;;;12.80;nan;101078.50;5011515;28;20618;-63
2022/10/13 07:11:14;;;;;;;22.53;7.30;;;12.30;99.90;;;12.80;nan;101074.09;5012095;28;20634;-62
2022/10/13 07:13:43;;;;;;;14.27;6.97;;;12.40;99.90;;;12.92;nan;101081.06;5010284;28;20633;-64
2022/10/13 07:16:12;;;;;;;17.20;8.10;;;12.40;99.90;;;12.99;nan;101079.63;5011884;28;20661;-64
2022/10/13 07:18:39;;;;;;;14.60;7.57;;;12.50;99.90;;;13.03;nan;101086.31;5010905;28;21203;-66
2022/10/13 07:21:06;;;;;;;18.57;8.37;;;12.50;99.90;;;13.07;nan;101081.72;5008612;28;20634;-63
2022/10/13 07:23:33;;;;;;;14.57;7.67;;;12.50;99.90;;;12.78;nan;101070.75;5011477;28;20670;-64
2022/10/13 07:26:00;;;;;;;12.67;6.23;;;12.50;99.90;;;12.93;nan;101069.59;5011418;28;20662;-65
2022/10/13 07:28:27;;;;;;;13.60;6.80;;;12.50;99.90;;;13.07;nan;101076.47;5010947;28;20622;-65
2022/10/13 07:30:54;;;;;;;13.30;6.77;;;12.60;99.90;;;12.91;nan;101071.50;5011354;28;20634;-64
2022/10/13 07:33:21;;;;;;;15.80;6.77;;;12.60;99.90;;;13.12;nan;101069.94;5012140;28;20669;-65
2022/10/13 07:35:48;;;;;;;16.57;6.93;;;12.60;99.90;;;13.05;nan;101060.03;4993714;28;20637;-65
2022/10/13 07:38:15;;;;;;;12.37;6.87;;;12.60;99.90;;;13.00;nan;101068.22;5011901;28;20652;-62
2022/10/13 07:40:42;;;;;;;15.47;6.63;;;12.60;99.90;;;13.12;nan;101048.13;5011042;28;21009;-63
2022/10/13 07:43:09;;;;;;;14.07;7.27;;;12.60;99.90;;;13.14;nan;101030.50;5011932;28;20948;-63
2022/10/13 07:45:36;;;;;;;15.73;7.17;;;12.70;99.90;;;13.29;nan;101039.81;5011580;28;20630;-65
2022/10/13 07:48:03;;;;;;;16.63;8.00;;;12.80;99.90;;;13.51;nan;101050.34;5011783;28;20616;-64
2022/10/13 07:50:30;;;;;;;13.27;6.20;;;12.80;99.90;;;13.84;nan;101052.94;5010966;28;20636;-64
2022/10/13 07:52:57;;;;;;;21.60;8.20;;;13.00;99.90;;;13.56;nan;101048.19;5011952;28;20610;-64
2022/10/13 07:55:24;;;;;;;19.43;7.30;;;13.10;99.90;;;13.44;nan;101051.75;5011171;28;20626;-63
2022/10/13 07:57:51;;;;;;;9.43;5.37;;;13.10;99.90;;;13.70;nan;101049.72;5010620;28;20638;-64
2022/10/13 08:00:18;;;;;;;14.23;6.53;;;13.20;99.90;;;13.67;nan;101047.34;5008616;28;20612;-62
2022/10/13 08:02:49;;;;;;;18.60;8.07;;;13.20;99.90;;;13.65;nan;101039.59;5003091;28;21063;-64
2022/10/13 08:05:17;;;;;;;14.00;6.43;;;13.20;99.90;;;13.75;nan;101042.34;5002644;28;20632;-64
2022/10/13 08:07:44;;;;;;;16.20;7.93;;;13.20;99.90;;;13.74;nan;101044.13;5010444;28;20721;-64
2022/10/13 08:10:12;;;;;;;16.47;7.37;;;13.30;99.90;;;13.88;nan;101054.34;4992258;28;20852;-65
2022/10/13 08:12:40;;;;;;;19.97;8.80;;;13.30;99.90;;;13.78;nan;101052.56;4991459;28;21167;-66
2022/10/13 08:15:08;;;;;;;19.27;8.03;;;13.30;99.90;;;13.60;nan;101048.78;5006161;28;20645;-63
2022/10/13 08:17:35;;;;;;;14.50;7.67;;;13.20;99.90;;;13.60;nan;101049.63;5010574;28;20934;-64
2022/10/13 08:20:05;;;;;;;27.27;9.70;;;13.20;99.90;;;13.76;nan;101042.22;5010322;28;20660;-65
2022/10/13 08:22:33;;;;;;;17.37;8.37;;;13.30;99.90;;;13.52;nan;101056.41;5010371;28;21013;-64
2022/10/13 08:25:00;;;;;;;19.37;9.20;;;13.20;99.90;;;13.59;nan;101054.97;5009911;28;20618;-63
2022/10/13 08:27:28;;;;;;;14.97;8.17;;;13.20;99.90;;;13.69;nan;101058.56;5010213;28;20666;-64
2022/10/13 08:30:15;;;;;;;23.43;11.40;;;13.20;99.90;;;13.94;nan;101061.75;5010705;28;21224;-64
2022/10/13 08:32:42;;;;;;;22.80;10.47;;;13.30;99.90;;;13.88;nan;101064.03;5010581;28;20652;-64
2022/10/13 08:35:13;;;;;;;16.53;8.20;;;13.40;99.90;;;13.81;nan;101071.53;5011043;28;20652;-65
2022/10/13 08:37:40;;;;;;;19.70;10.33;;;13.40;99.90;;;13.83;nan;101064.41;5009982;28;20649;-64
2022/10/13 08:40:15;;;;;;;22.37;9.97;;;13.40;99.90;;;13.73;nan;101065.22;5009320;28;20641;-64
2022/10/13 08:42:43;;;;;;;24.80;9.40;;;13.40;99.90;;;13.83;nan;101064.41;4993400;28;21040;-64
2022/10/13 08:45:24;;;;;;;23.10;10.27;;;13.40;99.90;;;13.91;nan;101059.38;5008778;28;20640;-61
2022/10/13 08:48:32;;;;;;;17.30;8.40;;;13.40;99.90;;;13.84;nan;101060.78;4999375;28;20630;-64
2022/10/13 08:51:05;;;;;;;19.63;8.57;;;13.40;99.90;;;13.93;nan;101061.84;4988100;28;20653;-65
2022/10/13 08:53:41;;;;;;;18.93;9.07;;;13.40;99.90;;;14.01;nan;101062.94;4974514;28;20664;-63
2022/10/13 08:56:31;;;;;;;23.00;10.50;;;13.40;99.90;;;14.00;nan;101070.91;5009480;28;20642;-64
2022/10/13 08:59:03;;;;;;;25.20;12.80;;;13.50;99.90;;;14.12;nan;101072.56;5009688;28;20640;-63
2022/10/13 09:01:35;;;;;;;20.50;10.60;;;13.50;99.90;;;14.12;nan;101071.75;4993641;28;20629;-63
2022/10/13 09:04:25;;;;;;;20.87;10.20;;;13.60;99.90;;;14.20;nan;101071.97;5008743;28;20716;-63
2022/10/13 09:07:01;;;;;;;23.27;10.33;;;13.60;99.90;;;14.12;nan;101074.38;4998374;28;20663;-63
2022/10/13 09:09:28;;;;;;;23.50;8.77;;;13.60;99.90;;;14.05;nan;101068.78;5001595;28;20621;-62
2022/10/13 09:11:57;;;;;;;20.40;8.97;;;13.60;99.90;;;14.02;nan;101066.38;5009219;28;20985;-63
2022/10/13 09:14:28;;;;;;;19.13;8.47;;;13.60;99.90;;;13.78;nan;101056.03;4989471;28;20633;-65
2022/10/13 09:17:12;;;;;;;17.20;9.07;;;13.50;99.90;;;14.12;nan;101067.31;5010282;28;20723;-65
2022/10/13 09:19:43;;;;;;;18.43;7.70;;;13.50;99.90;;;14.29;nan;101069.47;4986522;28;20707;-65
2022/10/13 09:22:29;;;;;;;16.87;8.67;;;13.70;99.90;;;14.40;nan;101065.97;5004304;28;20711;-66
2022/10/13 09:25:16;;;;;;;16.23;8.60;;;13.80;99.90;;;14.53;nan;101064.03;4988871;28;20635;-64
2022/10/13 09:27:56;;;;;;;19.87;9.77;;;13.80;99.90;;;14.66;nan;101067.31;4990387;28;20634;-65
2022/10/13 09:30:32;;;;;;;20.97;9.93;;;13.90;99.90;;;14.72;nan;101067.66;5004846;28;21069;-65
2022/10/13 09:33:07;;;;;;;18.47;9.87;;;14.00;99.90;;;14.73;nan;101063.22;5010847;28;20629;-63
2022/10/13 09:35:59;;;;;;;22.47;11.00;;;14.00;99.90;;;14.80;nan;101064.38;5006150;28;20637;-65
2022/10/13 09:38:27;;;;;;;16.40;8.80;;;14.00;99.90;;;14.74;nan;101068.34;5001889;23;20691;-63
2022/10/13 09:41:09;;;;;;;19.97;8.37;;;14.10;99.90;;;14.74;nan;101057.00;4969755;28;20642;-64
2022/10/13 09:43:45;;;;;;;16.80;8.70;;;14.10;99.90;;;14.74;nan;101055.22;4977163;28;21310;-65
2022/10/13 09:46:24;;;;;;;18.40;9.27;;;14.10;99.90;;;14.72;nan;101041.38;4982336;28;20641;-62
2022/10/13 09:48:57;;;;;;;14.47;8.17;;;14.10;99.90;;;14.72;nan;101045.78;4978422;28;20684;-65
2022/10/13 09:51:42;;;;;;;17.90;8.67;;;14.10;99.90;;;14.70;nan;101042.47;4944075;28;20638;-64
2022/10/13 09:54:37;;;;;;;18.87;8.97;;;14.10;99.90;;;14.75;nan;101050.81;4952524;28;20636;-65
2022/10/13 09:57:19;;;;;;;14.90;8.67;;;14.10;99.90;;;14.69;nan;101064.44;4952905;28;21027;-65
2022/10/13 10:00:21;;;;;;;16.10;7.73;;;14.10;99.90;;;14.68;nan;101062.78;4972054;28;20653;-64
2022/10/13 10:03:14;;;;;;;15.70;9.13;;;14.10;99.90;;;14.51;nan;101063.31;4956578;28;21233;-64
2022/10/13 10:05:54;;;;;;;15.10;8.03;;;14.10;99.90;;;14.51;nan;101064.16;4971628;28;21038;-65
2022/10/13 10:08:45;;;;;;;14.73;8.20;;;14.00;99.90;;;14.44;nan;101056.88;4974884;28;20670;-66
2022/10/13 10:11:39;;;;;;;15.67;8.97;;;14.00;99.90;;;14.47;nan;101054.88;4958452;28;20674;-65
2022/10/13 10:14:27;;;;;;;21.40;9.70;;;14.00;99.90;;;14.54;nan;101057.81;4973880;28;20639;-65
2022/10/13 10:17:31;;;;;;;12.10;7.50;;;14.00;99.90;;;14.57;nan;101068.06;4956222;28;20669;-65
2022/10/13 10:20:39;;;;;;;12.50;7.83;;;14.00;99.90;;;14.45;nan;101055.94;4955536;28;21023;-65
2022/10/13 10:23:46;;;;;;;16.37;7.53;;;14.00;99.90;;;14.42;nan;101053.53;4968957;28;20667;-65
2022/10/13 10:26:23;;;;;;;13.57;7.40;;;14.00;99.90;;;14.35;nan;101037.47;4972624;28;20649;-64
2022/10/13 10:29:47;;;;;;;10.70;7.10;;;13.90;99.90;;;14.41;nan;101044.88;4973672;28;20950;-63
2022/10/13 10:32:43;;;;;;;13.00;6.27;;;13.90;99.90;;;14.53;nan;101041.22;4961281;28;20717;-65
2022/10/13 10:35:48;;;;;;;17.23;7.50;;;13.90;99.90;;;14.62;nan;101040.47;4954900;28;20685;-66
2022/10/13 10:38:38;;;;;;;19.20;9.77;;;14.00;99.90;;;14.62;nan;101042.25;4972319;28;20671;-65
2022/10/13 10:41:41;;;;;;;23.47;9.27;;;14.00;99.90;;;14.70;nan;101045.94;4952764;28;21012;-64
2022/10/13 10:44:35;;;;;;;13.50;8.30;;;14.00;99.90;;;14.73;nan;101047.47;4969081;28;20995;-66
2022/10/13 10:47:23;;;;;;;17.27;9.00;;;14.10;99.90;;;14.77;nan;101046.25;4968193;28;20674;-67